createdAt,value
2023-10-25T00:01:12.478Z,9.81
2023-10-25T00:03:42.053Z,9.78
2023-10-25T00:06:11.482Z,9.80
2023-10-25T00:08:40.635Z,9.81
2023-10-25T00:11:11.034Z,9.76
2023-10-25T00:13:40.276Z,9.79
2023-10-25T00:16:16.785Z,9.78
2023-10-25T00:18:48.047Z,9.79
2023-10-25T00:21:17.703Z,9.81
2023-10-25T00:23:46.782Z,9.80
2023-10-25T00:26:16.153Z,9.79
2023-10-25T00:28:52.249Z,9.79
2023-10-25T00:31:23.453Z,9.78
2023-10-25T00:33:53.197Z,9.80
2023-10-25T00:36:22.674Z,9.80
2023-10-25T00:38:51.870Z,9.80
2023-10-25T00:41:21.287Z,9.80
2023-10-25T00:43:50.608Z,9.74
2023-10-25T00:46:25.937Z,9.75
2023-10-25T00:48:56.743Z,9.77
2023-10-25T00:51:27.855Z,9.77
2023-10-25T00:53:58.654Z,9.78
2023-10-25T00:56:29.297Z,9.80
2023-10-25T00:59:00.143Z,9.79
2023-10-25T01:01:32.064Z,9.79
2023-10-25T01:04:01.308Z,9.79
2023-10-25T01:06:30.992Z,9.77
2023-10-25T01:09:01.279Z,9.77
2023-10-25T01:11:31.091Z,9.79
2023-10-25T01:14:00.292Z,9.77
2023-10-25T01:16:31.669Z,9.79
2023-10-25T01:19:00.807Z,9.77
2023-10-25T01:21:30.522Z,9.77
2023-10-25T01:24:01.017Z,9.77
2023-10-25T01:26:30.579Z,9.78
2023-10-25T01:28:59.985Z,9.75
2023-10-25T01:31:29.556Z,9.77
2023-10-25T01:33:58.733Z,9.77
2023-10-25T01:36:28.444Z,9.76
2023-10-25T01:38:59.309Z,9.73
2023-10-25T01:41:28.780Z,9.75
2023-10-25T01:43:58.082Z,9.74
2023-10-25T01:46:27.665Z,9.74
2023-10-25T01:48:56.808Z,9.73
2023-10-25T01:51:26.914Z,9.73
2023-10-25T01:53:56.023Z,9.74
2023-10-25T01:56:26.857Z,9.70
2023-10-25T01:58:56.171Z,9.71
2023-10-25T02:01:25.689Z,9.72
2023-10-25T02:03:55.106Z,9.70
2023-10-25T02:06:24.701Z,9.72
2023-10-25T02:08:53.830Z,9.71
2023-10-25T02:11:23.560Z,9.71
2023-10-25T02:13:53.997Z,9.67
2023-10-25T02:16:24.627Z,9.68
2023-10-25T02:18:54.104Z,9.69
2023-10-25T02:21:23.483Z,9.66
2023-10-25T02:23:54.421Z,9.65
2023-10-25T02:26:24.929Z,9.63
2023-10-25T02:28:57.440Z,9.64
2023-10-25T02:31:27.228Z,9.65
2023-10-25T02:33:56.889Z,9.64
2023-10-25T02:36:26.829Z,9.65
2023-10-25T02:38:55.964Z,9.66
2023-10-25T02:41:25.365Z,9.64
2023-10-25T02:43:55.120Z,9.65
2023-10-25T02:46:26.551Z,9.67
2023-10-25T02:48:55.874Z,9.68
2023-10-25T02:51:25.079Z,9.66
2023-10-25T02:53:55.354Z,9.66
2023-10-25T02:56:25.238Z,9.70
2023-10-25T02:58:54.333Z,9.69
2023-10-25T03:01:26.457Z,9.69
2023-10-25T03:03:55.866Z,9.69
2023-10-25T03:06:25.129Z,9.68
2023-10-25T03:08:54.959Z,9.69
2023-10-25T03:11:24.586Z,9.72
2023-10-25T03:13:53.723Z,9.75
2023-10-25T03:16:23.278Z,9.74
2023-10-25T03:18:54.019Z,9.77
2023-10-25T03:21:24.459Z,9.78
2023-10-25T03:23:53.649Z,9.79
2023-10-25T03:26:23.039Z,9.77
2023-10-25T03:28:53.740Z,9.78
2023-10-25T03:31:32.027Z,9.79
2023-10-25T03:34:04.892Z,9.77
2023-10-25T03:36:34.536Z,9.76
2023-10-25T03:39:03.861Z,9.80
2023-10-25T03:41:33.023Z,9.81
2023-10-25T03:44:02.245Z,9.79
2023-10-25T03:46:31.718Z,9.83
2023-10-25T03:49:00.883Z,9.82
2023-10-25T03:51:32.408Z,9.82
2023-10-25T03:54:01.554Z,9.76
2023-10-25T03:56:30.829Z,9.77
2023-10-25T03:59:00.008Z,9.80
2023-10-25T04:01:29.388Z,9.79
2023-10-25T04:03:58.591Z,9.80
2023-10-25T04:06:27.851Z,9.76
2023-10-25T04:08:58.322Z,9.79
2023-10-25T04:11:27.852Z,9.79
2023-10-25T04:13:56.959Z,9.81
2023-10-25T04:16:26.867Z,9.80
2023-10-25T04:18:56.900Z,9.80
2023-10-25T04:21:26.614Z,9.84
2023-10-25T04:23:57.212Z,9.86
2023-10-25T04:26:26.677Z,9.85
2023-10-25T04:28:55.906Z,9.85
2023-10-25T04:31:25.221Z,9.84
2023-10-25T04:33:54.444Z,9.83
2023-10-25T04:36:23.948Z,9.84
2023-10-25T04:38:53.170Z,9.83
2023-10-25T04:41:23.944Z,9.84
2023-10-25T04:43:53.109Z,9.87
2023-10-25T04:46:22.574Z,9.86
2023-10-25T04:48:51.842Z,9.88
2023-10-25T04:51:21.205Z,9.89
2023-10-25T04:53:50.263Z,9.87
2023-10-25T04:56:25.810Z,9.86
2023-10-25T04:58:54.971Z,9.88
2023-10-25T05:01:24.470Z,9.91
2023-10-25T05:03:53.741Z,9.93
2023-10-25T05:06:23.329Z,9.92
2023-10-25T05:08:53.137Z,9.91
2023-10-25T05:11:30.133Z,9.93
2023-10-25T05:14:00.370Z,9.92
2023-10-25T05:16:30.415Z,9.94
2023-10-25T05:19:00.284Z,9.96
2023-10-25T05:21:31.797Z,9.92
2023-10-25T05:24:01.522Z,9.94
2023-10-25T05:26:35.376Z,9.94
2023-10-25T05:29:07.258Z,9.95
2023-10-25T05:31:42.813Z,9.94
2023-10-25T05:34:13.069Z,9.92
2023-10-25T05:36:43.084Z,9.93
2023-10-25T05:39:12.909Z,9.94
2023-10-25T05:41:44.714Z,9.94
2023-10-25T05:44:17.638Z,9.94
2023-10-25T05:46:48.376Z,9.95
2023-10-25T05:49:20.271Z,9.93
2023-10-25T05:51:50.608Z,9.92
2023-10-25T05:54:21.039Z,9.93
2023-10-25T05:56:52.383Z,9.95
2023-10-25T05:59:22.288Z,9.92
2023-10-25T06:01:55.931Z,9.92
2023-10-25T06:04:28.554Z,9.94
2023-10-25T06:06:58.747Z,9.94
2023-10-25T06:09:28.611Z,9.96
2023-10-25T06:12:00.249Z,9.95
2023-10-25T06:14:31.127Z,9.93
2023-10-25T06:17:03.570Z,9.94
2023-10-25T06:19:33.250Z,9.94
2023-10-25T06:22:02.945Z,9.93
2023-10-25T06:24:32.055Z,9.94
2023-10-25T06:27:02.758Z,9.94
2023-10-25T06:29:32.500Z,9.93
2023-10-25T06:32:02.156Z,9.96
2023-10-25T06:34:31.428Z,9.95
2023-10-25T06:37:01.904Z,9.93
2023-10-25T06:39:31.980Z,9.95
2023-10-25T06:42:04.053Z,9.96
2023-10-25T06:44:35.355Z,9.98
2023-10-25T06:47:07.493Z,9.96
2023-10-25T06:49:37.469Z,9.94
2023-10-25T06:52:07.860Z,9.97
2023-10-25T06:54:37.918Z,9.96
2023-10-25T06:57:10.159Z,9.97
2023-10-25T06:59:41.239Z,9.97
2023-10-25T07:02:34.808Z,10.01
2023-10-25T07:05:11.288Z,10.00
2023-10-25T07:07:42.246Z,10.00
2023-10-25T07:10:12.742Z,10.02
2023-10-25T07:12:43.922Z,10.04
2023-10-25T07:15:13.582Z,10.06
2023-10-25T07:17:43.721Z,10.09
2023-10-25T07:20:14.032Z,10.08
2023-10-25T07:22:43.853Z,10.07
2023-10-25T07:25:13.026Z,10.07
2023-10-25T07:27:43.707Z,10.08
2023-10-25T07:30:13.308Z,10.07
2023-10-25T07:32:42.944Z,10.08
2023-10-25T07:35:12.598Z,10.10
2023-10-25T07:37:42.130Z,10.09
2023-10-25T07:40:12.333Z,10.12
2023-10-25T07:42:43.331Z,10.13
2023-10-25T07:45:13.025Z,10.14
2023-10-25T07:47:42.500Z,10.13
2023-10-25T07:50:11.934Z,10.17
2023-10-25T07:52:41.346Z,10.19
2023-10-25T07:55:42.048Z,10.17
2023-10-25T08:00:34.184Z,10.19
2023-10-25T08:03:03.729Z,10.22
2023-10-25T08:05:32.938Z,10.20
2023-10-25T08:08:02.714Z,10.24
2023-10-25T08:10:31.796Z,10.23
2023-10-25T08:13:02.661Z,10.24
2023-10-25T08:15:31.873Z,10.24
2023-10-25T08:18:01.698Z,10.22
2023-10-25T08:20:31.141Z,10.21
2023-10-25T08:23:00.880Z,10.19
2023-10-25T08:25:30.057Z,10.23
2023-10-25T08:27:59.288Z,10.21
2023-10-25T08:30:30.905Z,10.21
2023-10-25T08:33:00.620Z,10.20
2023-10-25T08:35:30.650Z,10.21
2023-10-25T08:38:00.153Z,10.24
2023-10-25T08:40:29.504Z,10.22
2023-10-25T08:43:00.194Z,10.20
2023-10-25T08:45:34.141Z,10.21
2023-10-25T08:48:04.430Z,10.22
2023-10-25T08:50:33.935Z,10.21
2023-10-25T08:53:03.458Z,10.23
2023-10-25T08:55:32.748Z,10.30
2023-10-25T08:58:01.902Z,10.30
2023-10-25T09:00:47.345Z,10.27
2023-10-25T09:03:41.937Z,10.25
2023-10-25T09:06:12.667Z,10.26
2023-10-25T09:08:44.861Z,10.26
2023-10-25T09:11:14.712Z,10.28
2023-10-25T09:13:44.331Z,10.22
2023-10-25T09:16:17.843Z,10.25
2023-10-25T09:18:47.439Z,10.26
2023-10-25T09:21:16.708Z,10.28
2023-10-25T09:23:58.391Z,10.24
2023-10-25T09:26:27.929Z,10.26
2023-10-25T09:28:57.312Z,10.26
2023-10-25T09:31:30.747Z,10.28
2023-10-25T09:34:02.061Z,10.27
2023-10-25T09:36:31.462Z,10.29
2023-10-25T09:39:00.857Z,10.32
2023-10-25T09:41:33.321Z,10.31
2023-10-25T09:44:07.514Z,10.35
2023-10-25T09:46:38.741Z,10.35
2023-10-25T09:49:09.263Z,10.31
2023-10-25T09:52:07.115Z,10.32
2023-10-25T09:54:38.138Z,10.29
2023-10-25T09:57:07.742Z,10.29
2023-10-25T09:59:39.675Z,10.28
2023-10-25T10:02:15.159Z,10.32
2023-10-25T10:04:52.148Z,10.32
2023-10-25T10:07:38.554Z,10.30
2023-10-25T10:10:20.088Z,10.29
2023-10-25T10:12:49.608Z,10.24
2023-10-25T10:15:20.794Z,10.24
2023-10-25T10:17:51.467Z,10.28
2023-10-25T10:20:30.539Z,10.31
2023-10-25T10:23:07.464Z,10.22
2023-10-25T10:25:47.670Z,10.21
2023-10-25T10:28:17.660Z,10.19
2023-10-25T10:30:48.903Z,10.16
2023-10-25T10:33:19.808Z,10.18
2023-10-25T10:35:50.552Z,10.20
2023-10-25T10:38:19.946Z,10.22
2023-10-25T10:40:52.903Z,10.20
2023-10-25T10:43:22.556Z,10.20
2023-10-25T10:45:54.849Z,10.18
2023-10-25T10:48:33.626Z,10.18
2023-10-25T10:51:03.795Z,10.18
2023-10-25T10:53:33.041Z,10.15
2023-10-25T10:56:02.630Z,10.13
2023-10-25T10:58:31.982Z,10.14
2023-10-25T11:01:01.733Z,10.15
2023-10-25T11:03:32.948Z,10.16
2023-10-25T11:06:07.063Z,10.11
2023-10-25T11:08:36.504Z,10.13
2023-10-25T11:11:05.965Z,10.12
2023-10-25T11:13:35.389Z,10.09
2023-10-25T11:16:08.356Z,10.14
2023-10-25T11:18:39.272Z,10.15
2023-10-25T11:21:08.721Z,10.15
2023-10-25T11:23:38.732Z,10.09
2023-10-25T11:26:08.621Z,10.12
2023-10-25T11:28:40.492Z,10.09
2023-10-25T11:31:10.025Z,10.12
2023-10-25T11:33:49.765Z,10.13
2023-10-25T11:36:19.825Z,10.13
2023-10-25T11:38:49.014Z,10.12
2023-10-25T11:41:18.438Z,10.11
2023-10-25T11:43:47.624Z,10.08
2023-10-25T11:46:17.860Z,10.11
2023-10-25T11:48:50.639Z,10.11
2023-10-25T11:51:21.051Z,10.09
2023-10-25T11:53:50.463Z,10.09
2023-10-25T11:56:23.077Z,10.07
2023-10-25T11:58:52.475Z,10.05
2023-10-25T12:01:22.287Z,10.01
2023-10-25T12:03:52.976Z,10.02
2023-10-25T12:06:23.032Z,10.03
2023-10-25T12:08:52.982Z,10.02
2023-10-25T12:11:22.764Z,10.03
2023-10-25T12:13:51.723Z,9.97
2023-10-25T12:16:21.361Z,9.97
2023-10-25T12:18:51.984Z,9.93
2023-10-25T12:21:21.894Z,9.97
2023-10-25T12:23:50.993Z,10.00
2023-10-25T12:26:20.963Z,9.92
2023-10-25T12:28:49.923Z,9.91
2023-10-25T12:31:19.295Z,9.92
2023-10-25T12:33:48.564Z,9.89
2023-10-25T12:36:19.422Z,9.93
2023-10-25T12:38:49.810Z,9.95
2023-10-25T12:41:19.324Z,9.92
2023-10-25T12:43:49.178Z,9.93
2023-10-25T12:46:18.893Z,9.93
2023-10-25T12:48:48.026Z,9.93
2023-10-25T12:51:19.161Z,9.91
2023-10-25T12:53:48.361Z,9.87
2023-10-25T12:56:17.831Z,9.83
2023-10-25T12:58:47.106Z,9.85
2023-10-25T13:01:16.503Z,9.83
2023-10-25T13:03:48.020Z,9.81
2023-10-25T13:06:19.584Z,9.81
2023-10-25T13:08:49.236Z,9.76
2023-10-25T13:11:18.764Z,9.80
2023-10-25T13:13:47.815Z,9.75
2023-10-25T13:16:17.380Z,9.77
2023-10-25T13:18:46.528Z,9.75
2023-10-25T13:21:15.932Z,9.73
2023-10-25T13:23:46.569Z,9.68
2023-10-25T13:26:16.108Z,9.65
2023-10-25T13:28:45.366Z,9.69
2023-10-25T13:31:14.734Z,9.64
2023-10-25T13:33:44.049Z,9.62
2023-10-25T13:36:13.344Z,9.65
2023-10-25T13:38:42.446Z,9.64
2023-10-25T13:41:13.179Z,9.63
2023-10-25T13:43:42.288Z,9.63
2023-10-25T13:46:11.687Z,9.63
2023-10-25T13:48:42.668Z,9.63
2023-10-25T13:51:12.215Z,9.61
2023-10-25T13:53:41.454Z,9.60
2023-10-25T13:56:18.404Z,9.60
2023-10-25T13:58:47.618Z,9.58
2023-10-25T14:01:17.104Z,9.60
2023-10-25T14:03:46.427Z,9.56
2023-10-25T14:06:18.528Z,9.55
2023-10-25T14:08:47.769Z,9.56
2023-10-25T14:11:19.946Z,9.54
2023-10-25T14:13:51.405Z,9.54
2023-10-25T14:16:20.992Z,9.56
2023-10-25T14:18:50.464Z,9.54
2023-10-25T14:21:19.932Z,9.55
2023-10-25T14:23:49.909Z,9.54
2023-10-25T14:26:21.535Z,9.53
2023-10-25T14:28:50.829Z,9.54
2023-10-25T14:31:20.314Z,9.54
2023-10-25T14:33:49.554Z,9.56
2023-10-25T14:36:19.155Z,9.56
2023-10-25T14:38:49.554Z,9.55
2023-10-25T14:41:20.447Z,9.53
2023-10-25T14:43:50.660Z,9.54
2023-10-25T14:46:21.132Z,9.54
2023-10-25T14:48:51.125Z,9.53
2023-10-25T14:51:27.342Z,9.49
2023-10-25T14:53:59.019Z,9.51
2023-10-25T14:56:30.039Z,9.46
2023-10-25T14:58:59.274Z,9.49
2023-10-25T15:01:29.150Z,9.43
2023-10-25T15:03:58.345Z,9.41
2023-10-25T15:06:29.823Z,9.39
2023-10-25T15:08:59.691Z,9.39
2023-10-25T15:11:31.137Z,9.37
2023-10-25T15:14:00.312Z,9.35
2023-10-25T15:16:29.757Z,9.37
2023-10-25T15:18:58.929Z,9.35
2023-10-25T15:21:29.409Z,9.36
2023-10-25T15:23:59.032Z,9.36
2023-10-25T15:26:28.591Z,9.35
2023-10-25T15:29:00.478Z,9.34
2023-10-25T15:31:30.021Z,9.36
2023-10-25T15:34:00.588Z,9.38
2023-10-25T15:36:31.729Z,9.37
2023-10-25T15:39:08.928Z,9.36
2023-10-25T15:41:40.333Z,9.36
2023-10-25T15:44:10.988Z,9.34
2023-10-25T15:46:40.625Z,9.31
2023-10-25T15:49:09.763Z,9.33
2023-10-25T15:51:39.739Z,9.32
2023-10-25T15:54:08.908Z,9.31
2023-10-25T15:56:38.514Z,9.29
2023-10-25T15:59:08.015Z,9.27
2023-10-25T16:04:13.955Z,9.28
2023-10-25T16:06:43.858Z,9.29
2023-10-25T16:09:13.007Z,9.29
2023-10-25T16:11:42.711Z,9.29
2023-10-25T16:14:11.853Z,9.28
2023-10-25T16:16:42.663Z,9.28
2023-10-25T16:19:11.906Z,9.28
2023-10-25T16:21:42.475Z,9.31
2023-10-25T16:24:12.006Z,9.30
2023-10-25T16:26:41.261Z,9.28
2023-10-25T16:29:10.698Z,9.29
2023-10-25T16:31:41.573Z,9.29
2023-10-25T16:34:15.515Z,9.30
2023-10-25T16:36:57.197Z,9.30
2023-10-25T16:39:33.837Z,9.30
2023-10-25T16:42:03.438Z,9.32
2023-10-25T16:44:32.885Z,9.27
2023-10-25T16:47:07.433Z,9.25
2023-10-25T16:49:36.818Z,9.26
2023-10-25T16:52:06.584Z,9.28
2023-10-25T16:54:35.802Z,9.27
2023-10-25T16:57:05.523Z,9.28
2023-10-25T16:59:34.660Z,9.28
2023-10-25T17:02:08.207Z,9.29
2023-10-25T17:04:37.577Z,9.29
2023-10-25T17:07:06.961Z,9.30
2023-10-25T17:09:36.308Z,9.29
2023-10-25T17:12:07.374Z,9.30
2023-10-25T17:14:36.691Z,9.31
2023-10-25T17:17:07.645Z,9.33
2023-10-25T17:19:37.043Z,9.34
2023-10-25T17:22:06.818Z,9.33
2023-10-25T17:24:36.712Z,9.35
2023-10-25T17:27:06.802Z,9.33
2023-10-25T17:29:36.085Z,9.34
2023-10-25T17:32:07.333Z,9.32
2023-10-25T17:34:37.014Z,9.32
2023-10-25T17:37:06.741Z,9.34
2023-10-25T17:39:36.014Z,9.31
2023-10-25T17:42:06.225Z,9.34
2023-10-25T17:44:36.352Z,9.34
2023-10-25T17:47:07.627Z,9.36
2023-10-25T17:49:36.877Z,9.34
2023-10-25T17:52:06.577Z,9.33
2023-10-25T17:54:36.035Z,9.32
2023-10-25T17:57:07.589Z,9.32
2023-10-25T17:59:38.445Z,9.33
2023-10-25T18:02:09.311Z,9.34
2023-10-25T18:04:38.676Z,9.33
2023-10-25T18:07:08.972Z,9.33
2023-10-25T18:09:38.275Z,9.34
2023-10-25T18:12:08.042Z,9.31
2023-10-25T18:14:38.901Z,9.30
2023-10-25T18:17:09.787Z,9.28
2023-10-25T18:19:39.211Z,9.25
2023-10-25T18:22:08.727Z,9.27
2023-10-25T18:24:37.987Z,9.27
2023-10-25T18:27:07.596Z,9.27
2023-10-25T18:30:01.982Z,9.24
2023-10-25T18:32:29.033Z,9.23
2023-10-25T18:34:59.075Z,9.22
2023-10-25T18:37:29.107Z,9.23
2023-10-25T18:39:59.816Z,9.22
2023-10-25T18:42:31.262Z,9.23
2023-10-25T18:45:05.034Z,9.23
2023-10-25T18:47:37.745Z,9.23
2023-10-25T18:50:07.639Z,9.18
2023-10-25T18:52:39.998Z,9.17
2023-10-25T18:55:09.386Z,9.14
2023-10-25T18:57:41.687Z,9.14
2023-10-25T19:00:13.040Z,9.12
2023-10-25T19:02:45.855Z,9.06
2023-10-25T19:06:23.198Z,9.05
2023-10-25T19:08:26.699Z,9.06
2023-10-25T19:10:54.553Z,9.05
2023-10-25T19:13:25.157Z,9.06
2023-10-25T19:15:54.441Z,9.04
2023-10-25T19:18:25.549Z,9.03
2023-10-25T19:20:57.934Z,8.97
2023-10-25T19:23:27.774Z,8.99
2023-10-25T19:25:56.978Z,8.95
2023-10-25T19:28:26.574Z,8.96
2023-10-25T19:30:56.876Z,8.96
2023-10-25T19:33:29.054Z,8.96
2023-10-25T19:35:58.680Z,8.87
2023-10-25T19:38:28.731Z,8.86
2023-10-25T19:40:58.406Z,8.85
2023-10-25T19:43:27.839Z,8.88
2023-10-25T19:45:56.996Z,8.86
2023-10-25T19:48:27.866Z,8.79
2023-10-25T19:50:57.087Z,8.75
2023-10-25T19:53:26.501Z,8.79
2023-10-25T19:55:55.850Z,8.77
2023-10-25T19:58:26.856Z,8.77
2023-10-25T20:00:58.429Z,8.69
2023-10-25T20:03:29.330Z,8.67
2023-10-25T20:06:07.380Z,8.59
2023-10-25T20:08:37.511Z,8.56
2023-10-25T20:11:07.168Z,8.58
2023-10-25T20:13:40.001Z,8.61
2023-10-25T20:16:18.215Z,8.58
2023-10-25T20:18:57.101Z,8.60
2023-10-25T20:21:34.302Z,8.58
2023-10-25T20:24:13.875Z,8.54
2023-10-25T20:27:00.277Z,8.57
2023-10-25T20:29:31.446Z,8.51
2023-10-25T20:32:20.898Z,8.49
2023-10-25T20:35:11.961Z,8.49
2023-10-25T20:37:53.676Z,8.50
2023-10-25T20:40:27.123Z,8.52
2023-10-25T20:43:05.851Z,8.52
2023-10-25T20:45:53.936Z,8.52
2023-10-25T20:48:46.773Z,8.51
2023-10-25T20:51:38.702Z,8.49
2023-10-25T20:54:08.099Z,8.48
2023-10-25T20:56:37.300Z,8.48
2023-10-25T20:59:06.540Z,8.46
2023-10-25T21:01:35.850Z,8.42
2023-10-25T21:04:05.103Z,8.42
2023-10-25T21:06:36.301Z,8.40
2023-10-25T21:09:07.582Z,8.41
2023-10-25T21:11:37.290Z,8.37
2023-10-25T21:14:06.554Z,8.39
2023-10-25T21:16:35.698Z,8.39
2023-10-25T21:19:06.636Z,8.38
2023-10-25T21:21:37.548Z,8.36
2023-10-25T21:24:07.816Z,8.37
2023-10-25T21:26:38.449Z,8.32
2023-10-25T21:29:11.281Z,8.34
2023-10-25T21:31:41.212Z,8.33
2023-10-25T21:34:10.443Z,8.30
2023-10-25T21:36:41.189Z,8.31
2023-10-25T21:39:10.491Z,8.34
2023-10-25T21:41:40.348Z,8.32
2023-10-25T21:44:09.393Z,8.31
2023-10-25T21:46:38.758Z,8.31
2023-10-25T21:49:07.919Z,8.27
2023-10-25T21:51:37.457Z,8.25
2023-10-25T21:54:08.413Z,8.26
2023-10-25T21:56:37.970Z,8.27
2023-10-25T21:59:50.674Z,8.28
2023-10-25T22:01:57.238Z,8.27
2023-10-25T22:04:26.359Z,8.24
2023-10-25T22:09:49.620Z,8.24
2023-10-25T22:12:19.985Z,8.23
2023-10-25T22:14:49.254Z,8.23
2023-10-25T22:17:26.711Z,8.23
2023-10-25T22:19:55.846Z,8.22
2023-10-25T22:22:25.254Z,8.25
2023-10-25T22:24:55.808Z,8.27
2023-10-25T22:27:25.278Z,8.21
2023-10-25T22:29:54.412Z,8.20
2023-10-25T22:32:23.921Z,8.21
2023-10-25T22:34:55.835Z,8.21
2023-10-25T22:37:25.327Z,8.22
2023-10-25T22:39:55.846Z,8.18
2023-10-25T22:42:25.870Z,8.20
2023-10-25T22:44:54.751Z,8.21
2023-10-25T22:47:24.339Z,8.22
2023-10-25T22:49:53.459Z,8.20
2023-10-25T22:52:22.911Z,8.16
2023-10-25T22:54:51.967Z,8.16
2023-10-25T22:57:22.829Z,8.16
2023-10-25T22:59:53.795Z,8.17
2023-10-25T23:02:23.367Z,8.17
2023-10-25T23:04:52.522Z,8.15
2023-10-25T23:07:21.814Z,8.15
2023-10-25T23:09:51.060Z,8.14
2023-10-25T23:12:21.936Z,8.16
2023-10-25T23:14:51.175Z,8.15
2023-10-25T23:17:20.545Z,8.17
2023-10-25T23:19:49.810Z,8.17
2023-10-25T23:22:20.881Z,8.17
2023-10-25T23:24:50.193Z,8.17
2023-10-25T23:27:21.052Z,8.17
2023-10-25T23:29:52.149Z,8.17
2023-10-25T23:32:21.831Z,8.18
2023-10-25T23:34:50.942Z,8.17
2023-10-25T23:37:20.412Z,8.17
2023-10-25T23:39:49.589Z,8.16
2023-10-25T23:42:18.991Z,8.17
2023-10-25T23:44:49.851Z,8.19
2023-10-25T23:47:19.547Z,8.18
2023-10-25T23:49:48.768Z,8.18
2023-10-25T23:52:18.131Z,8.20
2023-10-25T23:54:54.052Z,8.18
2023-10-25T23:57:25.660Z,8.19
2023-10-25T23:59:56.415Z,8.19
